createdAt,value
2022-09-23T00:02:31.410Z,7.78
2022-09-23T00:05:34.298Z,7.62
2022-09-23T00:08:36.740Z,7.60
2022-09-23T00:11:39.082Z,7.75
2022-09-23T00:14:41.133Z,7.70
2022-09-23T00:17:44.429Z,7.10
2022-09-23T00:20:46.768Z,7.40
2022-09-23T00:23:49.635Z,7.15
2022-09-23T00:26:51.692Z,7.45
2022-09-23T00:29:54.026Z,7.03
2022-09-23T00:32:56.776Z,7.20
2022-09-23T00:36:00.487Z,6.93
2022-09-23T00:39:04.468Z,6.75
2022-09-23T00:42:14.031Z,6.97
2022-09-23T00:45:16.867Z,6.40
2022-09-23T00:48:20.846Z,6.60
2022-09-23T00:51:28.024Z,6.75
2022-09-23T00:54:31.132Z,6.32
2022-09-23T00:57:35.004Z,5.53
2022-09-23T01:00:37.598Z,7.22
2022-09-23T01:03:42.949Z,6.35
2022-09-23T01:06:45.285Z,6.43
2022-09-23T01:09:48.616Z,6.45
2022-09-23T01:13:17.256Z,6.47
2022-09-23T01:16:46.993Z,6.37
2022-09-23T01:20:13.781Z,6.65
2022-09-23T01:23:46.590Z,6.45
2022-09-23T01:26:56.585Z,5.47
2022-09-23T01:30:16.761Z,5.75
2022-09-23T01:33:43.135Z,5.72
2022-09-23T01:36:55.311Z,5.97
2022-09-23T01:40:06.763Z,5.50
2022-09-23T01:43:31.169Z,5.47
2022-09-23T01:46:42.431Z,5.87
2022-09-23T01:49:53.187Z,5.68
2022-09-23T01:53:01.492Z,6.03
2022-09-23T01:56:10.693Z,6.37
2022-09-23T01:59:26.549Z,5.82
2022-09-23T02:02:31.718Z,5.95
2022-09-23T02:05:39.477Z,6.10
2022-09-23T02:08:56.517Z,5.93
2022-09-23T02:12:05.690Z,5.80
2022-09-23T02:15:16.230Z,5.70
2022-09-23T02:18:26.539Z,5.87
2022-09-23T02:21:34.330Z,6.35
2022-09-23T02:24:39.429Z,6.10
2022-09-23T02:27:49.685Z,6.40
2022-09-23T02:31:03.652Z,5.87
2022-09-23T02:34:25.919Z,5.70
2022-09-23T02:37:43.433Z,6.05
2022-09-23T02:41:06.611Z,5.45
2022-09-23T02:44:12.695Z,5.68
2022-09-23T02:47:18.161Z,5.40
2022-09-23T02:50:22.245Z,5.68
2022-09-23T02:53:24.798Z,5.93
2022-09-23T02:56:28.147Z,5.95
2022-09-23T02:59:31.481Z,5.72
2022-09-23T03:03:00.069Z,5.78
2022-09-23T03:06:15.593Z,6.03
2022-09-23T03:09:33.872Z,7.10
2022-09-23T03:12:47.995Z,6.78
2022-09-23T03:16:35.571Z,5.45
2022-09-23T03:19:48.309Z,6.07
2022-09-23T03:22:56.890Z,6.45
2022-09-23T03:26:06.140Z,6.90
2022-09-23T03:29:11.402Z,7.30
2022-09-23T03:32:17.206Z,6.50
2022-09-23T03:35:23.455Z,5.95
2022-09-23T03:38:34.188Z,6.43
2022-09-23T03:41:41.834Z,6.03
2022-09-23T03:44:48.096Z,6.43
2022-09-23T03:47:50.413Z,5.60
2022-09-23T03:50:52.500Z,5.35
2022-09-23T03:53:54.862Z,5.82
2022-09-23T03:56:58.261Z,5.60
2022-09-23T04:00:00.628Z,6.03
2022-09-23T04:03:02.861Z,5.35
2022-09-23T04:06:05.340Z,5.95
2022-09-23T04:09:08.188Z,5.47
2022-09-23T04:12:14.723Z,6.35
2022-09-23T04:15:17.063Z,6.22
2022-09-23T04:18:19.435Z,6.30
2022-09-23T04:21:22.056Z,6.22
2022-09-23T04:24:24.491Z,6.12
2022-09-23T04:27:26.526Z,6.20
2022-09-23T04:30:28.864Z,6.65
2022-09-23T04:33:31.363Z,6.68
2022-09-23T04:36:33.731Z,6.53
2022-09-23T04:39:35.836Z,7.40
2022-09-23T04:42:38.158Z,7.80
2022-09-23T04:45:40.228Z,6.40
2022-09-23T04:48:42.965Z,6.50
2022-09-23T04:51:45.849Z,7.70
2022-09-23T04:54:48.453Z,6.45
2022-09-23T04:57:50.579Z,6.65
2022-09-23T05:00:52.986Z,6.95
2022-09-23T05:04:05.380Z,6.65
2022-09-23T05:07:07.787Z,6.68
2022-09-23T05:10:10.236Z,7.50
2022-09-23T05:13:12.943Z,7.07
2022-09-23T05:16:15.639Z,7.72
2022-09-23T05:19:18.017Z,8.68
2022-09-23T05:22:20.095Z,9.52
2022-09-23T05:25:25.202Z,9.77
2022-09-23T05:28:32.851Z,9.60
2022-09-23T05:31:36.590Z,9.27
2022-09-23T05:34:38.890Z,9.23
2022-09-23T05:37:41.385Z,10.02
2022-09-23T05:40:43.751Z,9.43
2022-09-23T05:43:47.348Z,9.18
2022-09-23T05:46:49.646Z,8.68
2022-09-23T05:50:00.529Z,9.30
2022-09-23T05:53:02.923Z,8.75
2022-09-23T05:56:06.477Z,9.25
2022-09-23T05:59:08.691Z,8.93
2022-09-23T06:02:11.158Z,8.35
2022-09-23T06:05:13.837Z,9.10
2022-09-23T06:08:15.986Z,8.35
2022-09-23T06:11:18.686Z,8.70
2022-09-23T06:14:20.766Z,8.32
2022-09-23T06:17:23.084Z,9.30
2022-09-23T06:20:25.608Z,8.60
2022-09-23T06:23:28.507Z,8.10
2022-09-23T06:26:33.532Z,8.68
2022-09-23T06:29:36.921Z,8.15
2022-09-23T06:32:38.997Z,9.27
2022-09-23T06:35:43.801Z,8.48
2022-09-23T06:38:49.350Z,9.15
2022-09-23T06:41:51.660Z,8.57
2022-09-23T06:44:53.726Z,8.57
2022-09-23T06:47:58.852Z,8.55
2022-09-23T06:51:02.529Z,8.55
2022-09-23T06:54:04.898Z,8.85
2022-09-23T06:57:06.950Z,8.27
2022-09-23T07:00:09.979Z,8.02
2022-09-23T07:03:12.065Z,9.40
2022-09-23T07:06:14.739Z,8.82
2022-09-23T07:09:16.846Z,9.20
2022-09-23T07:12:19.246Z,8.23
2022-09-23T07:15:21.389Z,8.60
2022-09-23T07:18:25.453Z,7.93
2022-09-23T07:21:27.864Z,13.82
2022-09-23T07:24:30.244Z,11.07
2022-09-23T07:27:33.233Z,9.23
2022-09-23T07:30:50.876Z,7.85
2022-09-23T07:33:58.310Z,7.10
2022-09-23T07:37:00.668Z,6.28
2022-09-23T07:40:03.032Z,6.65
2022-09-23T07:43:08.347Z,6.00
2022-09-23T07:46:14.416Z,6.03
2022-09-23T07:49:17.327Z,6.28
2022-09-23T07:52:20.168Z,5.90
2022-09-23T07:55:22.542Z,5.62
2022-09-23T07:58:25.929Z,5.65
2022-09-23T08:01:40.555Z,5.90
2022-09-23T08:04:42.984Z,5.82
2022-09-23T08:07:45.090Z,5.28
2022-09-23T08:10:47.580Z,5.05
2022-09-23T08:13:49.632Z,4.82
2022-09-23T08:16:52.407Z,4.97
2022-09-23T08:19:54.532Z,4.15
2022-09-23T08:22:56.834Z,4.43
2022-09-23T08:26:04.907Z,4.55
2022-09-23T08:29:10.151Z,4.93
2022-09-23T08:32:12.620Z,5.37
2022-09-23T08:35:15.447Z,5.07
2022-09-23T08:38:17.757Z,4.85
2022-09-23T08:41:29.386Z,5.43
2022-09-23T08:44:50.915Z,5.93
2022-09-23T08:48:08.522Z,5.53
2022-09-23T08:51:18.339Z,5.62
2022-09-23T08:54:20.994Z,5.18
2022-09-23T08:57:39.888Z,5.30
2022-09-23T09:00:46.143Z,5.12
2022-09-23T09:03:56.771Z,6.10
2022-09-23T09:07:34.705Z,5.78
2022-09-23T09:10:43.915Z,5.60
2022-09-23T09:13:59.704Z,6.15
2022-09-23T09:17:07.908Z,6.07
2022-09-23T09:20:19.264Z,6.43
2022-09-23T09:23:22.811Z,5.85
2022-09-23T09:26:33.583Z,6.20
2022-09-23T09:29:41.261Z,5.20
2022-09-23T09:33:01.605Z,5.87
2022-09-23T09:36:25.241Z,5.50
2022-09-23T09:39:41.070Z,5.68
2022-09-23T09:42:48.438Z,5.62
2022-09-23T09:46:15.107Z,5.97
2022-09-23T09:49:38.117Z,5.80
2022-09-23T09:52:43.250Z,5.43
2022-09-23T09:55:46.112Z,5.00
2022-09-23T09:58:50.102Z,5.20
2022-09-23T10:02:14.081Z,4.85
2022-09-23T10:05:45.432Z,5.07
2022-09-23T10:09:02.259Z,4.50
2022-09-23T10:12:15.619Z,4.30
2022-09-23T10:15:34.728Z,4.97
2022-09-23T10:18:48.142Z,4.80
2022-09-23T10:21:56.573Z,5.43
2022-09-23T10:25:20.911Z,5.00
2022-09-23T10:28:46.335Z,4.62
2022-09-23T10:31:52.737Z,4.32
2022-09-23T10:35:08.888Z,4.50
2022-09-23T10:38:11.402Z,4.68
2022-09-23T10:41:38.682Z,4.60
2022-09-23T10:45:12.097Z,4.95
2022-09-23T10:48:34.032Z,3.87
2022-09-23T10:51:43.587Z,5.95
2022-09-23T10:55:17.209Z,5.10
2022-09-23T10:58:51.683Z,4.75
2022-09-23T11:02:00.623Z,4.12
2022-09-23T11:05:19.437Z,3.85
2022-09-23T11:08:33.749Z,4.97
2022-09-23T11:11:51.096Z,4.25
2022-09-23T11:15:19.983Z,4.30
2022-09-23T11:18:29.720Z,4.57
2022-09-23T11:21:46.934Z,5.15
2022-09-23T11:25:18.686Z,4.80
2022-09-23T11:28:58.353Z,4.95
2022-09-23T11:32:27.567Z,5.03
2022-09-23T11:35:49.862Z,5.00
2022-09-23T11:38:54.988Z,4.75
2022-09-23T11:42:01.052Z,4.75
2022-09-23T11:45:35.606Z,4.75
2022-09-23T11:49:06.312Z,4.82
2022-09-23T11:55:31.483Z,4.28
2022-09-23T11:58:59.805Z,4.47
2022-09-23T12:02:18.993Z,4.50
2022-09-23T12:08:36.509Z,4.53
2022-09-23T12:11:54.818Z,4.20
2022-09-23T12:15:12.327Z,3.92
2022-09-23T12:18:49.797Z,3.50
2022-09-23T12:22:10.166Z,4.70
2022-09-23T12:28:47.990Z,4.20
2022-09-23T12:31:53.689Z,4.65
2022-09-23T12:35:00.978Z,4.90
2022-09-23T12:38:22.557Z,4.62
2022-09-23T12:41:42.507Z,4.37
2022-09-23T12:44:48.619Z,4.40
2022-09-23T12:47:50.668Z,4.22
2022-09-23T12:51:06.612Z,4.32
2022-09-23T12:54:22.419Z,2.95
2022-09-23T12:57:34.021Z,2.62
2022-09-23T13:00:36.203Z,2.87
2022-09-23T13:04:04.159Z,2.87
2022-09-23T13:07:09.141Z,3.10
2022-09-23T13:10:34.023Z,3.60
2022-09-23T13:13:39.829Z,2.90
2022-09-23T13:16:46.126Z,3.05
2022-09-23T13:19:59.411Z,3.22
2022-09-23T13:23:17.552Z,3.30
2022-09-23T13:26:19.669Z,3.33
2022-09-23T13:29:33.201Z,3.03
2022-09-23T13:32:44.702Z,3.55
2022-09-23T13:35:53.072Z,3.33
2022-09-23T13:39:14.964Z,3.30
2022-09-23T13:42:30.206Z,2.60
2022-09-23T13:45:37.990Z,3.08
2022-09-23T13:48:44.175Z,2.95
2022-09-23T13:51:46.371Z,3.30
2022-09-23T13:54:50.081Z,3.50
2022-09-23T13:58:23.793Z,3.28
2022-09-23T14:01:34.744Z,2.90
2022-09-23T14:04:37.615Z,2.95
2022-09-23T14:07:40.050Z,3.10
2022-09-23T14:10:45.984Z,2.60
2022-09-23T14:13:54.183Z,3.22
2022-09-23T14:16:57.409Z,3.22
2022-09-23T14:19:59.489Z,3.53
2022-09-23T14:23:14.642Z,2.87
2022-09-23T14:26:18.030Z,2.62
2022-09-23T14:29:26.895Z,2.60
2022-09-23T14:32:30.104Z,2.70
2022-09-23T14:35:42.726Z,2.83
2022-09-23T14:38:50.552Z,2.85
2022-09-23T14:41:53.187Z,2.47
2022-09-23T14:44:55.974Z,2.53
2022-09-23T14:48:01.157Z,2.67
2022-09-23T14:51:10.935Z,2.65
2022-09-23T14:54:50.578Z,2.70
2022-09-23T14:58:02.216Z,2.20
2022-09-23T15:01:24.690Z,2.10
2022-09-23T15:04:27.742Z,2.10
2022-09-23T15:07:30.088Z,2.35
2022-09-23T15:10:38.082Z,2.10
2022-09-23T15:13:46.986Z,2.55
2022-09-23T15:16:49.181Z,2.40
2022-09-23T15:19:56.668Z,2.33
2022-09-23T15:22:58.771Z,2.10
2022-09-23T15:26:06.988Z,2.83
2022-09-23T15:29:10.188Z,3.20
2022-09-23T15:32:12.518Z,3.10
2022-09-23T15:35:18.578Z,2.75
2022-09-23T15:38:21.945Z,2.90
2022-09-23T15:41:24.371Z,3.17
2022-09-23T15:44:29.594Z,2.67
2022-09-23T15:47:31.759Z,3.25
2022-09-23T15:50:35.747Z,2.90
2022-09-23T15:53:38.235Z,3.10
2022-09-23T15:56:40.621Z,2.85
2022-09-23T15:59:43.113Z,3.47
2022-09-23T16:02:48.624Z,3.17
2022-09-23T16:05:51.814Z,3.42
2022-09-23T16:08:54.591Z,3.72
2022-09-23T16:11:57.095Z,3.83
2022-09-23T16:14:59.183Z,3.47
2022-09-23T16:18:01.681Z,3.60
2022-09-23T16:21:04.596Z,3.72
2022-09-23T16:24:15.706Z,3.80
2022-09-23T16:30:23.035Z,4.00
2022-09-23T16:33:25.171Z,3.42
2022-09-23T16:36:33.080Z,3.50
2022-09-23T16:39:35.177Z,4.30
2022-09-23T16:42:38.270Z,3.53
2022-09-23T16:45:40.551Z,4.60
2022-09-23T16:48:46.993Z,5.47
2022-09-23T16:51:51.849Z,6.00
2022-09-23T16:54:54.211Z,5.30
2022-09-23T16:57:56.330Z,4.93
2022-09-23T17:01:17.746Z,5.20
2022-09-23T17:04:20.059Z,5.47
2022-09-23T17:07:22.584Z,4.53
2022-09-23T17:10:24.645Z,4.18
2022-09-23T17:13:28.086Z,4.28
2022-09-23T17:16:32.143Z,4.32
2022-09-23T17:19:34.703Z,4.82
2022-09-23T17:22:36.795Z,4.68
2022-09-23T17:25:39.122Z,4.72
2022-09-23T17:28:41.198Z,4.18
2022-09-23T17:31:43.672Z,4.60
2022-09-23T17:34:45.880Z,4.43
2022-09-23T17:37:48.223Z,4.65
2022-09-23T17:40:55.392Z,4.70
2022-09-23T17:43:58.571Z,5.72
2022-09-23T17:47:00.834Z,5.68
2022-09-23T17:50:03.355Z,5.82
2022-09-23T17:53:05.589Z,5.50
2022-09-23T17:56:12.779Z,5.32
2022-09-23T17:59:14.871Z,5.22
2022-09-23T18:02:17.282Z,4.97
2022-09-23T18:05:19.752Z,5.07
2022-09-23T18:08:21.800Z,5.15
2022-09-23T18:11:26.378Z,5.00
2022-09-23T18:14:28.867Z,4.55
2022-09-23T18:17:31.245Z,5.47
2022-09-23T18:20:33.316Z,4.82
2022-09-23T18:23:37.234Z,5.40
2022-09-23T18:26:39.902Z,5.07
2022-09-23T18:29:42.255Z,4.78
2022-09-23T18:32:44.938Z,4.62
2022-09-23T18:35:47.287Z,5.72
2022-09-23T18:38:50.473Z,5.22
2022-09-23T18:41:52.808Z,6.65
2022-09-23T18:44:56.418Z,6.80
2022-09-23T18:48:17.387Z,7.57
2022-09-23T18:51:21.501Z,9.43
2022-09-23T18:54:25.857Z,10.05
2022-09-23T18:57:27.946Z,10.90
2022-09-23T19:00:30.347Z,11.40
2022-09-23T19:03:33.822Z,10.50
2022-09-23T19:06:37.341Z,11.73
2022-09-23T19:09:39.439Z,11.12
2022-09-23T19:12:41.801Z,11.00
2022-09-23T19:15:43.889Z,10.88
2022-09-23T19:18:46.765Z,9.77
2022-09-23T19:21:48.914Z,10.02
2022-09-23T19:24:51.318Z,10.65
2022-09-23T19:27:53.784Z,11.45
2022-09-23T19:30:56.396Z,13.43
2022-09-23T19:34:09.943Z,12.80
2022-09-23T19:37:12.471Z,14.15
2022-09-23T19:40:15.403Z,13.62
2022-09-23T19:43:18.263Z,15.40
2022-09-23T19:46:20.847Z,15.85
2022-09-23T19:49:24.443Z,15.50
2022-09-23T19:52:26.706Z,15.98
2022-09-23T19:55:29.370Z,14.20
2022-09-23T19:58:33.018Z,13.75
2022-09-23T20:01:35.976Z,12.27
2022-09-23T20:04:38.551Z,13.55
2022-09-23T20:07:41.880Z,13.32
2022-09-23T20:10:46.740Z,14.65
2022-09-23T20:13:53.639Z,15.38
2022-09-23T20:16:56.022Z,14.50
2022-09-23T20:19:58.675Z,12.98
2022-09-23T20:23:01.042Z,13.85
2022-09-23T20:26:23.647Z,13.40
2022-09-23T20:29:26.388Z,13.52
2022-09-23T20:32:28.971Z,15.23
2022-09-23T20:35:33.100Z,13.98
2022-09-23T20:38:36.432Z,15.07
2022-09-23T20:41:39.562Z,17.27
2022-09-23T20:44:44.049Z,17.95
2022-09-23T20:47:46.376Z,16.95
2022-09-23T20:50:51.080Z,15.80
2022-09-23T20:53:53.390Z,14.70
2022-09-23T20:56:55.464Z,14.52
2022-09-23T20:59:58.149Z,14.55
2022-09-23T21:03:00.519Z,13.40
2022-09-23T21:06:06.193Z,13.77
2022-09-23T21:09:08.708Z,13.13
2022-09-23T21:12:11.523Z,12.10
2022-09-23T21:15:13.713Z,11.80
2022-09-23T21:18:20.429Z,11.60
2022-09-23T21:21:24.665Z,12.00
2022-09-23T21:27:53.950Z,10.88
2022-09-23T21:31:05.961Z,10.52
2022-09-23T21:34:14.504Z,9.65
2022-09-23T21:37:17.565Z,10.18
2022-09-23T21:40:38.480Z,10.95
2022-09-23T21:43:41.413Z,11.20
2022-09-23T21:46:43.573Z,10.00
2022-09-23T21:49:49.906Z,9.45
2022-09-23T21:52:53.440Z,9.35
2022-09-23T21:56:04.734Z,9.38
2022-09-23T21:59:08.028Z,9.10
2022-09-23T22:02:10.348Z,9.30
2022-09-23T22:05:12.692Z,9.48
2022-09-23T22:08:14.745Z,9.85
2022-09-23T22:11:41.127Z,9.82
2022-09-23T22:14:43.335Z,8.85
2022-09-23T22:17:48.006Z,9.55
2022-09-23T22:20:50.227Z,8.77
2022-09-23T22:23:54.104Z,8.57
2022-09-23T22:26:56.248Z,8.13
2022-09-23T22:30:17.025Z,9.60
2022-09-23T22:33:19.117Z,9.70
2022-09-23T22:36:21.861Z,7.90
2022-09-23T22:39:25.367Z,7.93
2022-09-23T22:42:27.975Z,7.78
2022-09-23T22:45:30.168Z,7.57
2022-09-23T22:48:32.502Z,7.30
2022-09-23T22:51:34.713Z,7.28
2022-09-23T22:54:37.453Z,7.80
2022-09-23T22:57:39.746Z,7.18
2022-09-23T23:00:42.085Z,8.15
2022-09-23T23:03:45.629Z,8.10
2022-09-23T23:06:48.046Z,7.85
2022-09-23T23:09:51.219Z,8.10
2022-09-23T23:12:53.563Z,7.47
2022-09-23T23:15:55.698Z,7.43
2022-09-23T23:18:58.123Z,7.20
2022-09-23T23:22:00.620Z,7.20
2022-09-23T23:25:02.970Z,7.45
2022-09-23T23:28:05.847Z,7.37
2022-09-23T23:31:10.964Z,7.32
2022-09-23T23:34:16.170Z,7.57
2022-09-23T23:37:20.937Z,8.27
2022-09-23T23:40:23.335Z,7.05
2022-09-23T23:43:25.749Z,7.22
2022-09-23T23:46:29.637Z,7.37
2022-09-23T23:49:32.069Z,7.47
2022-09-23T23:52:34.151Z,7.93
2022-09-23T23:55:39.225Z,7.50
2022-09-23T23:58:42.305Z,6.93
